createdAt,value
2018-11-12T00:00:41.693Z,1005.58
2018-11-12T00:01:41.719Z,1005.60
2018-11-12T00:02:41.745Z,1005.64
2018-11-12T00:03:41.772Z,1005.63
2018-11-12T00:04:41.798Z,1005.67
2018-11-12T00:05:41.824Z,1005.67
2018-11-12T00:06:41.850Z,1005.65
2018-11-12T00:07:41.876Z,1005.64
2018-11-12T00:08:41.903Z,1005.62
2018-11-12T00:09:41.928Z,1005.65
2018-11-12T00:10:41.954Z,1005.67
2018-11-12T00:11:41.984Z,1005.57
2018-11-12T00:12:42.053Z,1005.55
2018-11-12T00:13:42.035Z,1005.48
2018-11-12T00:14:42.059Z,1005.48
2018-11-12T00:15:42.085Z,1005.45
2018-11-12T00:16:42.113Z,1005.49
2018-11-12T00:17:42.137Z,1005.51
2018-11-12T00:18:42.163Z,1005.50
2018-11-12T00:19:42.191Z,1005.52
2018-11-12T00:20:42.219Z,1005.54
2018-11-12T00:21:42.291Z,1005.56
2018-11-12T00:22:42.270Z,1005.60
2018-11-12T00:23:42.294Z,1005.60
2018-11-12T00:24:42.321Z,1005.57
2018-11-12T00:25:42.351Z,1005.54
2018-11-12T00:26:42.372Z,1005.47
2018-11-12T00:27:42.405Z,1005.44
2018-11-12T00:28:42.425Z,1005.41
2018-11-12T00:29:42.450Z,1005.40
2018-11-12T00:30:42.478Z,1005.42
2018-11-12T00:31:42.503Z,1005.37
2018-11-12T00:32:42.530Z,1005.46
2018-11-12T00:33:42.555Z,1005.46
2018-11-12T00:34:42.581Z,1005.46
2018-11-12T00:35:42.609Z,1005.49
2018-11-12T00:36:42.634Z,1005.52
2018-11-12T00:37:42.660Z,1005.58
2018-11-12T00:38:42.686Z,1005.59
2018-11-12T00:39:42.715Z,1005.62
2018-11-12T00:40:42.739Z,1005.68
2018-11-12T00:41:42.764Z,1005.74
2018-11-12T00:42:42.793Z,1005.81
2018-11-12T00:43:42.817Z,1005.84
2018-11-12T00:44:42.843Z,1005.89
2018-11-12T00:45:42.868Z,1005.84
2018-11-12T00:46:42.900Z,1005.81
2018-11-12T00:47:42.923Z,1005.83
2018-11-12T00:48:42.948Z,1005.82
2018-11-12T00:49:42.972Z,1005.88
2018-11-12T00:50:42.999Z,1005.82
2018-11-12T00:51:43.026Z,1005.82
2018-11-12T00:52:43.052Z,1005.82
2018-11-12T00:53:43.077Z,1005.88
2018-11-12T00:54:43.104Z,1005.87
2018-11-12T00:55:43.131Z,1005.92
2018-11-12T00:56:43.157Z,1005.93
2018-11-12T00:57:43.182Z,1005.89
2018-11-12T00:58:43.212Z,1005.98
2018-11-12T00:59:43.235Z,1006.06
2018-11-12T01:00:43.262Z,1006.07
2018-11-12T01:01:43.287Z,1006.10
2018-11-12T01:02:43.813Z,1006.06
2018-11-12T01:03:43.340Z,1006.07
2018-11-12T01:04:43.367Z,1006.07
2018-11-12T01:05:43.391Z,1005.99
2018-11-12T01:06:43.418Z,1006.03
2018-11-12T01:07:43.447Z,1006.01
2018-11-12T01:08:43.471Z,1006.04
2018-11-12T01:09:43.496Z,1006.03
2018-11-12T01:10:43.523Z,1006.09
2018-11-12T01:11:43.549Z,1006.04
2018-11-12T01:12:43.575Z,1006.05
2018-11-12T01:13:43.601Z,1006.09
2018-11-12T01:14:43.627Z,1006.13
2018-11-12T01:15:43.654Z,1006.11
2018-11-12T01:16:43.681Z,1006.19
2018-11-12T01:17:43.708Z,1006.18
2018-11-12T01:18:43.732Z,1006.23
2018-11-12T01:19:43.759Z,1006.24
2018-11-12T01:20:43.787Z,1006.28
2018-11-12T01:21:43.811Z,1006.28
2018-11-12T01:22:43.838Z,1006.20
2018-11-12T01:23:43.863Z,1006.19
2018-11-12T01:24:43.893Z,1006.18
2018-11-12T01:25:43.916Z,1006.13
2018-11-12T01:26:43.942Z,1006.13
2018-11-12T01:27:43.971Z,1006.08
2018-11-12T01:28:43.999Z,1006.09
2018-11-12T01:29:44.021Z,1006.13
2018-11-12T01:30:44.047Z,1006.13
2018-11-12T01:31:44.075Z,1006.13
2018-11-12T01:32:44.106Z,1006.12
2018-11-12T01:33:44.127Z,1006.13
2018-11-12T01:34:44.157Z,1006.09
2018-11-12T01:35:44.179Z,1006.12
2018-11-12T01:36:44.205Z,1006.19
2018-11-12T01:37:44.231Z,1006.21
2018-11-12T01:38:44.258Z,1006.16
2018-11-12T01:39:44.284Z,1006.18
2018-11-12T01:40:44.310Z,1006.15
2018-11-12T01:41:44.336Z,1006.12
2018-11-12T01:42:44.363Z,1006.20
2018-11-12T01:43:44.389Z,1006.18
2018-11-12T01:44:44.416Z,1006.15
2018-11-12T01:45:44.443Z,1006.14
2018-11-12T01:46:44.467Z,1006.13
2018-11-12T01:47:44.494Z,1006.10
2018-11-12T01:48:44.522Z,1006.01
2018-11-12T01:49:44.546Z,1005.96
2018-11-12T01:50:44.572Z,1005.95
2018-11-12T01:51:44.604Z,1005.96
2018-11-12T01:52:44.625Z,1005.97
2018-11-12T01:53:44.650Z,1006.01
2018-11-12T01:54:44.679Z,1006.04
2018-11-12T01:55:44.703Z,1006.09
2018-11-12T01:56:44.732Z,1006.10
2018-11-12T01:57:44.756Z,1006.07
2018-11-12T01:58:44.783Z,1006.04
2018-11-12T01:59:44.810Z,1005.99
2018-11-12T02:00:44.834Z,1005.99
2018-11-12T02:01:44.864Z,1006.06
2018-11-12T02:02:44.887Z,1006.06
2018-11-12T02:03:44.914Z,1006.08
2018-11-12T02:04:45.027Z,1006.11
2018-11-12T02:05:44.965Z,1006.13
2018-11-12T02:06:44.993Z,1006.12
2018-11-12T02:07:45.019Z,1006.13
2018-11-12T02:08:45.171Z,1006.12
2018-11-12T02:09:45.071Z,1006.08
2018-11-12T02:10:45.097Z,1006.10
2018-11-12T02:11:45.123Z,1006.03
2018-11-12T02:12:45.152Z,1006.04
2018-11-12T02:13:45.175Z,1006.01
2018-11-12T02:14:45.304Z,1006.04
2018-11-12T02:15:45.231Z,1006.07
2018-11-12T02:16:45.255Z,1006.01
2018-11-12T02:17:45.280Z,1006.00
2018-11-12T02:18:45.307Z,1005.96
2018-11-12T02:19:45.333Z,1005.89
2018-11-12T02:20:45.361Z,1005.84
2018-11-12T02:21:45.385Z,1005.84
2018-11-12T02:22:45.412Z,1005.86
2018-11-12T02:23:45.440Z,1005.84
2018-11-12T02:24:45.465Z,1005.76
2018-11-12T02:25:45.492Z,1005.79
2018-11-12T02:26:45.522Z,1005.83
2018-11-12T02:27:45.542Z,1005.81
2018-11-12T02:28:45.569Z,1005.82
2018-11-12T02:29:45.595Z,1005.81
2018-11-12T02:30:45.621Z,1005.81
2018-11-12T02:31:45.647Z,1005.82
2018-11-12T02:32:45.675Z,1005.83
2018-11-12T02:33:45.704Z,1005.83
2018-11-12T02:34:45.730Z,1005.85
2018-11-12T02:35:45.751Z,1005.84
2018-11-12T02:36:45.780Z,1005.84
2018-11-12T02:37:45.842Z,1005.95
2018-11-12T02:38:45.830Z,1005.86
2018-11-12T02:39:45.861Z,1005.87
2018-11-12T02:40:45.892Z,1005.86
2018-11-12T02:41:45.908Z,1005.77
2018-11-12T02:42:45.935Z,1005.77
2018-11-12T02:43:45.960Z,1005.74
2018-11-12T02:44:45.987Z,1005.67
2018-11-12T02:45:46.014Z,1005.67
2018-11-12T02:46:46.039Z,1005.64
2018-11-12T02:47:46.064Z,1005.66
2018-11-12T02:48:46.090Z,1005.60
2018-11-12T02:49:46.116Z,1005.62
2018-11-12T02:50:46.142Z,1005.67
2018-11-12T02:51:46.168Z,1005.75
2018-11-12T02:52:46.196Z,1005.78
2018-11-12T02:53:46.220Z,1005.86
2018-11-12T02:54:46.246Z,1005.83
2018-11-12T02:55:46.273Z,1005.80
2018-11-12T02:56:46.300Z,1005.80
2018-11-12T02:57:46.380Z,1005.77
2018-11-12T02:58:46.350Z,1005.75
2018-11-12T02:59:46.377Z,1005.72
2018-11-12T03:00:46.403Z,1005.77
2018-11-12T03:01:46.477Z,1005.71
2018-11-12T03:02:46.461Z,1005.70
2018-11-12T03:03:46.482Z,1005.70
2018-11-12T03:04:46.520Z,1005.67
2018-11-12T03:05:46.533Z,1005.67
2018-11-12T03:06:46.560Z,1005.63
2018-11-12T03:07:46.586Z,1005.64
2018-11-12T03:08:46.614Z,1005.66
2018-11-12T03:09:46.639Z,1005.65
2018-11-12T03:10:46.665Z,1005.59
2018-11-12T03:11:46.692Z,1005.52
2018-11-12T03:12:46.718Z,1005.47
2018-11-12T03:13:46.747Z,1005.49
2018-11-12T03:14:46.824Z,1005.50
2018-11-12T03:15:46.797Z,1005.51
2018-11-12T03:16:46.824Z,1005.51
2018-11-12T03:17:46.849Z,1005.55
2018-11-12T03:18:46.877Z,1005.52
2018-11-12T03:19:46.907Z,1005.55
2018-11-12T03:20:46.930Z,1005.52
2018-11-12T03:21:46.954Z,1005.50
2018-11-12T03:22:46.981Z,1005.49
2018-11-12T03:23:47.008Z,1005.50
2018-11-12T03:24:47.035Z,1005.51
2018-11-12T03:25:47.058Z,1005.54
2018-11-12T03:26:47.086Z,1005.53
2018-11-12T03:27:47.175Z,1005.55
2018-11-12T03:28:47.138Z,1005.57
2018-11-12T03:29:47.164Z,1005.58
2018-11-12T03:30:47.191Z,1005.54
2018-11-12T03:31:47.217Z,1005.51
2018-11-12T03:32:47.250Z,1005.58
2018-11-12T03:33:47.269Z,1005.61
2018-11-12T03:34:47.296Z,1005.69
2018-11-12T03:35:47.322Z,1005.73
2018-11-12T03:36:47.357Z,1005.73
2018-11-12T03:37:47.374Z,1005.73
2018-11-12T03:38:47.403Z,1005.74
2018-11-12T03:39:47.456Z,1005.76
2018-11-12T03:40:47.456Z,1005.79
2018-11-12T03:41:47.479Z,1005.87
2018-11-12T03:42:47.505Z,1005.93
2018-11-12T03:43:47.533Z,1005.98
2018-11-12T03:44:47.559Z,1006.03
2018-11-12T03:45:47.584Z,1006.05
2018-11-12T03:46:47.611Z,1006.07
2018-11-12T03:47:47.636Z,1006.03
2018-11-12T03:48:47.665Z,1005.99
2018-11-12T03:49:47.689Z,1005.99
2018-11-12T03:50:47.715Z,1005.94
2018-11-12T03:51:47.745Z,1005.96
2018-11-12T03:52:47.767Z,1005.97
2018-11-12T03:53:47.793Z,1005.98
2018-11-12T03:54:47.819Z,1005.96
2018-11-12T03:55:47.846Z,1006.03
2018-11-12T03:56:47.876Z,1006.02
2018-11-12T03:57:47.897Z,1006.04
2018-11-12T03:58:47.924Z,1006.06
2018-11-12T03:59:47.951Z,1006.11
2018-11-12T04:00:47.977Z,1006.18
2018-11-12T04:01:48.003Z,1006.17
2018-11-12T04:02:48.030Z,1006.21
2018-11-12T04:03:48.056Z,1006.24
2018-11-12T04:04:48.083Z,1006.28
2018-11-12T04:05:48.107Z,1006.30
2018-11-12T04:06:48.133Z,1006.33
2018-11-12T04:07:48.162Z,1006.31
2018-11-12T04:08:48.188Z,1006.28
2018-11-12T04:09:48.214Z,1006.28
2018-11-12T04:10:48.239Z,1006.25
2018-11-12T04:11:48.266Z,1006.29
2018-11-12T04:12:48.294Z,1006.27
2018-11-12T04:13:48.318Z,1006.26
2018-11-12T04:14:48.344Z,1006.25
2018-11-12T04:15:48.370Z,1006.23
2018-11-12T04:16:48.397Z,1006.26
2018-11-12T04:17:48.426Z,1006.27
2018-11-12T04:18:48.449Z,1006.30
2018-11-12T04:19:48.476Z,1006.32
2018-11-12T04:20:48.502Z,1006.34
2018-11-12T04:21:48.527Z,1006.33
2018-11-12T04:22:48.555Z,1006.35
2018-11-12T04:23:48.585Z,1006.37
2018-11-12T04:24:48.607Z,1006.36
2018-11-12T04:25:48.632Z,1006.35
2018-11-12T04:26:48.661Z,1006.32
2018-11-12T04:27:48.686Z,1006.35
2018-11-12T04:28:48.713Z,1006.33
2018-11-12T04:29:48.738Z,1006.32
2018-11-12T04:30:48.764Z,1006.36
2018-11-12T04:31:48.792Z,1006.33
2018-11-12T04:32:48.819Z,1006.31
2018-11-12T04:33:48.844Z,1006.31
2018-11-12T04:34:48.872Z,1006.30
2018-11-12T04:35:48.898Z,1006.30
2018-11-12T04:36:48.924Z,1006.33
2018-11-12T04:37:48.949Z,1006.30
2018-11-12T04:38:48.976Z,1006.31
2018-11-12T04:39:49.003Z,1006.30
2018-11-12T04:40:49.029Z,1006.25
2018-11-12T04:41:49.060Z,1006.28
2018-11-12T04:42:49.091Z,1006.28
2018-11-12T04:43:49.110Z,1006.26
2018-11-12T04:44:49.136Z,1006.29
2018-11-12T04:45:49.162Z,1006.29
2018-11-12T04:46:49.188Z,1006.27
2018-11-12T04:47:49.215Z,1006.27
2018-11-12T04:48:49.241Z,1006.26
2018-11-12T04:49:49.268Z,1006.20
2018-11-12T04:50:49.298Z,1006.11
2018-11-12T04:51:49.320Z,1006.17
2018-11-12T04:52:49.347Z,1006.16
2018-11-12T04:53:49.495Z,1006.15
2018-11-12T04:54:49.401Z,1006.17
2018-11-12T04:55:49.426Z,1006.15
2018-11-12T04:56:49.453Z,1006.18
2018-11-12T04:57:49.480Z,1006.18
2018-11-12T04:58:49.508Z,1006.14
2018-11-12T04:59:49.533Z,1006.15
2018-11-12T05:00:49.560Z,1006.13
2018-11-12T05:01:49.617Z,1006.11
2018-11-12T05:02:49.612Z,1006.10
2018-11-12T05:03:49.638Z,1006.11
2018-11-12T05:04:49.665Z,1006.05
2018-11-12T05:05:49.691Z,1005.98
2018-11-12T05:06:49.718Z,1006.01
2018-11-12T05:07:49.744Z,1005.97
2018-11-12T05:08:49.771Z,1005.96
2018-11-12T05:09:49.797Z,1005.93
2018-11-12T05:10:49.824Z,1005.95
2018-11-12T05:11:49.849Z,1005.93
2018-11-12T05:12:49.877Z,1005.98
2018-11-12T05:13:49.903Z,1005.98
2018-11-12T05:14:49.929Z,1006.01
2018-11-12T05:15:49.956Z,1005.95
2018-11-12T05:16:50.131Z,1005.93
2018-11-12T05:17:50.009Z,1005.89
2018-11-12T05:18:50.034Z,1005.83
2018-11-12T05:19:50.061Z,1005.84
2018-11-12T05:20:50.090Z,1005.84
2018-11-12T05:21:50.113Z,1005.84
2018-11-12T05:22:50.140Z,1005.86
2018-11-12T05:23:50.166Z,1005.86
2018-11-12T05:24:50.192Z,1005.88
2018-11-12T05:25:50.218Z,1005.87
2018-11-12T05:26:50.245Z,1005.84
2018-11-12T05:27:50.274Z,1005.84
2018-11-12T05:28:50.300Z,1005.79
2018-11-12T05:29:50.323Z,1005.76
2018-11-12T05:30:50.349Z,1005.73
2018-11-12T05:31:50.376Z,1005.71
2018-11-12T05:32:50.403Z,1005.63
2018-11-12T05:33:50.430Z,1005.67
2018-11-12T05:34:50.454Z,1005.71
2018-11-12T05:35:50.481Z,1005.71
2018-11-12T05:36:50.508Z,1005.83
2018-11-12T05:37:50.682Z,1005.81
2018-11-12T05:38:50.562Z,1005.88
2018-11-12T05:39:50.585Z,1005.91
2018-11-12T05:40:50.613Z,1005.95
2018-11-12T05:41:50.638Z,1005.97
2018-11-12T05:42:50.664Z,1005.97
2018-11-12T05:43:50.691Z,1005.98
2018-11-12T05:44:50.780Z,1006.00
2018-11-12T05:45:50.743Z,1005.93
2018-11-12T05:46:50.772Z,1005.94
2018-11-12T05:47:50.797Z,1005.93
2018-11-12T05:48:50.822Z,1006.00
2018-11-12T05:49:50.848Z,1005.94
2018-11-12T05:50:50.874Z,1005.99
2018-11-12T05:51:50.901Z,1005.90
2018-11-12T05:52:50.927Z,1005.87
2018-11-12T05:53:50.954Z,1005.82
2018-11-12T05:54:50.980Z,1005.87
2018-11-12T05:55:51.006Z,1005.85
2018-11-12T05:56:51.032Z,1005.86
2018-11-12T05:57:51.060Z,1005.78
2018-11-12T05:58:51.095Z,1005.76
2018-11-12T05:59:51.113Z,1005.78
2018-11-12T06:00:51.137Z,1005.68
2018-11-12T06:01:51.162Z,1005.70
2018-11-12T06:02:51.189Z,1005.72
2018-11-12T06:03:51.215Z,1005.86
2018-11-12T06:04:51.307Z,1005.92
2018-11-12T06:05:51.268Z,1005.91
2018-11-12T06:06:51.294Z,1005.91
2018-11-12T06:07:51.321Z,1005.95
2018-11-12T06:08:51.347Z,1005.93
2018-11-12T06:09:51.372Z,1005.96
2018-11-12T06:10:51.398Z,1005.98
2018-11-12T06:11:51.435Z,1006.05
2018-11-12T06:12:51.452Z,1006.02
2018-11-12T06:13:51.476Z,1006.00
2018-11-12T06:14:51.505Z,1006.01
2018-11-12T06:15:51.529Z,1005.91
2018-11-12T06:16:51.555Z,1005.86
2018-11-12T06:17:51.580Z,1005.80
2018-11-12T06:18:51.607Z,1005.75
2018-11-12T06:19:51.634Z,1005.80
2018-11-12T06:20:51.659Z,1005.75
2018-11-12T06:21:51.695Z,1005.78
2018-11-12T06:22:51.866Z,1005.75
2018-11-12T06:23:51.740Z,1005.76
2018-11-12T06:24:51.764Z,1005.73
2018-11-12T06:25:51.789Z,1005.77
2018-11-12T06:26:51.822Z,1005.74
2018-11-12T06:27:51.841Z,1005.70
2018-11-12T06:28:51.867Z,1005.67
2018-11-12T06:29:51.893Z,1005.64
2018-11-12T06:30:51.921Z,1005.59
2018-11-12T06:31:51.948Z,1005.57
2018-11-12T06:32:51.972Z,1005.64
2018-11-12T06:33:51.997Z,1005.66
2018-11-12T06:34:52.023Z,1005.75
2018-11-12T06:35:52.049Z,1005.78
2018-11-12T06:36:52.175Z,1005.81
2018-11-12T06:37:52.101Z,1005.95
2018-11-12T06:38:52.127Z,1005.97
2018-11-12T06:39:52.153Z,1005.99
2018-11-12T06:40:52.181Z,1006.03
2018-11-12T06:41:52.206Z,1006.00
2018-11-12T06:42:52.440Z,1005.96
2018-11-12T06:43:52.257Z,1005.98
2018-11-12T06:44:52.283Z,1006.00
2018-11-12T06:45:52.310Z,1005.96
2018-11-12T06:46:52.336Z,1005.94
2018-11-12T06:47:52.364Z,1005.92
2018-11-12T06:48:52.390Z,1005.93
2018-11-12T06:49:52.414Z,1005.94
2018-11-12T06:50:52.439Z,1005.90
2018-11-12T06:51:52.466Z,1005.94
2018-11-12T06:52:52.576Z,1005.92
2018-11-12T06:53:52.524Z,1005.89
2018-11-12T06:54:52.544Z,1005.94
2018-11-12T06:55:52.569Z,1006.04
2018-11-12T06:56:52.595Z,1006.06
2018-11-12T06:57:52.620Z,1006.08
2018-11-12T06:58:52.647Z,1006.06
2018-11-12T06:59:52.674Z,1006.03
2018-11-12T07:00:52.723Z,1006.08
2018-11-12T07:01:52.725Z,1006.14
2018-11-12T07:02:52.751Z,1006.14
2018-11-12T07:03:52.779Z,1006.24
2018-11-12T07:04:52.804Z,1006.27
2018-11-12T07:05:52.830Z,1006.35
2018-11-12T07:06:52.919Z,1006.28
2018-11-12T07:07:52.881Z,1006.21
2018-11-12T07:08:52.908Z,1006.09
2018-11-12T07:09:52.933Z,1005.97
2018-11-12T07:10:52.960Z,1006.04
2018-11-12T07:11:52.986Z,1006.11
2018-11-12T07:12:53.012Z,1006.23
2018-11-12T07:13:53.039Z,1006.23
2018-11-12T07:14:53.067Z,1006.20
2018-11-12T07:15:53.090Z,1006.05
2018-11-12T07:16:53.116Z,1006.01
2018-11-12T07:17:53.142Z,1006.05
2018-11-12T07:18:53.231Z,1006.11
2018-11-12T07:19:53.195Z,1006.14
2018-11-12T07:20:53.222Z,1006.14
2018-11-12T07:21:53.246Z,1006.12
2018-11-12T07:22:53.274Z,1006.10
2018-11-12T07:23:53.305Z,1006.11
2018-11-12T07:24:53.326Z,1006.07
2018-11-12T07:25:53.352Z,1006.11
2018-11-12T07:26:53.378Z,1006.18
2018-11-12T07:27:53.403Z,1006.21
2018-11-12T07:28:53.430Z,1006.22
2018-11-12T07:29:53.455Z,1006.19
2018-11-12T07:30:53.621Z,1006.23
2018-11-12T07:31:53.508Z,1006.25
2018-11-12T07:32:53.535Z,1006.19
2018-11-12T07:33:53.559Z,1006.21
2018-11-12T07:34:53.588Z,1006.23
2018-11-12T07:35:53.612Z,1006.25
2018-11-12T07:36:53.638Z,1006.31
2018-11-12T07:37:53.666Z,1006.28
2018-11-12T07:38:53.691Z,1006.24
2018-11-12T07:39:53.717Z,1006.19
2018-11-12T07:40:53.743Z,1006.14
2018-11-12T07:41:53.840Z,1006.14
2018-11-12T07:42:53.807Z,1006.15
2018-11-12T07:43:53.821Z,1006.13
2018-11-12T07:44:53.852Z,1006.02
2018-11-12T07:45:53.876Z,1006.03
2018-11-12T07:46:53.900Z,1006.02
2018-11-12T07:47:53.928Z,1006.05
2018-11-12T07:48:54.051Z,1006.04
2018-11-12T07:49:53.981Z,1006.06
2018-11-12T07:50:54.005Z,1006.01
2018-11-12T07:51:54.032Z,1006.00
2018-11-12T07:52:54.059Z,1005.96
2018-11-12T07:53:54.083Z,1006.06
2018-11-12T07:54:54.110Z,1006.04
2018-11-12T07:55:54.136Z,1006.01
2018-11-12T07:56:54.164Z,1005.94
2018-11-12T07:57:54.189Z,1005.92
2018-11-12T07:58:54.215Z,1005.90
2018-11-12T07:59:54.244Z,1005.88
2018-11-12T08:00:54.268Z,1005.88
2018-11-12T08:01:54.294Z,1005.81
2018-11-12T08:02:54.325Z,1005.75
2018-11-12T08:03:54.349Z,1005.76
2018-11-12T08:04:54.373Z,1005.75
2018-11-12T08:05:54.400Z,1005.76
2018-11-12T08:06:54.426Z,1005.77
2018-11-12T08:07:54.552Z,1005.76
2018-11-12T08:08:54.499Z,1005.76
2018-11-12T08:09:54.507Z,1005.70
2018-11-12T08:10:54.531Z,1005.69
2018-11-12T08:11:54.580Z,1005.74
2018-11-12T08:12:54.584Z,1005.71
2018-11-12T08:13:54.613Z,1005.74
2018-11-12T08:14:54.687Z,1005.64
2018-11-12T08:15:54.662Z,1005.63
2018-11-12T08:16:54.689Z,1005.61
2018-11-12T08:17:54.716Z,1005.61
2018-11-12T08:18:54.741Z,1005.62
2018-11-12T08:19:54.769Z,1005.58
2018-11-12T08:20:54.795Z,1005.64
2018-11-12T08:21:54.929Z,1005.60
2018-11-12T08:22:54.846Z,1005.58
2018-11-12T08:23:54.878Z,1005.57
2018-11-12T08:24:54.900Z,1005.51
2018-11-12T08:25:54.926Z,1005.47
2018-11-12T08:26:54.953Z,1005.50
2018-11-12T08:27:54.980Z,1005.53
2018-11-12T08:28:55.009Z,1005.49
2018-11-12T08:29:55.172Z,1005.58
2018-11-12T08:30:55.058Z,1005.56
2018-11-12T08:31:55.085Z,1005.57
2018-11-12T08:32:55.190Z,1005.56
2018-11-12T08:33:55.137Z,1005.60
2018-11-12T08:34:55.166Z,1005.71
2018-11-12T08:35:55.191Z,1005.66
2018-11-12T08:36:55.218Z,1005.63
2018-11-12T08:37:55.244Z,1005.64
2018-11-12T08:38:55.269Z,1005.67
2018-11-12T08:39:55.371Z,1005.62
2018-11-12T08:40:55.428Z,1005.58
2018-11-12T08:41:55.348Z,1005.58
2018-11-12T08:42:55.373Z,1005.60
2018-11-12T08:43:55.402Z,1005.58
2018-11-12T08:44:55.427Z,1005.57
2018-11-12T08:45:55.496Z,1005.56
2018-11-12T08:46:55.534Z,1005.56
2018-11-12T08:47:55.506Z,1005.55
2018-11-12T08:48:55.563Z,1005.50
2018-11-12T08:49:55.603Z,1005.49
2018-11-12T08:50:55.585Z,1005.50
2018-11-12T08:51:55.612Z,1005.51
2018-11-12T08:52:55.642Z,1005.56
2018-11-12T08:53:55.663Z,1005.55
2018-11-12T08:54:55.776Z,1005.58
2018-11-12T08:55:55.718Z,1005.56
2018-11-12T08:56:55.746Z,1005.52
2018-11-12T08:57:55.806Z,1005.49
2018-11-12T08:58:55.827Z,1005.40
2018-11-12T08:59:55.823Z,1005.41
2018-11-12T09:00:55.938Z,1005.37
2018-11-12T09:01:55.876Z,1005.39
2018-11-12T09:02:55.903Z,1005.35
2018-11-12T09:03:55.991Z,1005.36
2018-11-12T09:04:55.981Z,1005.39
2018-11-12T09:05:56.012Z,1005.39
2018-11-12T09:06:56.011Z,1005.32
2018-11-12T09:07:56.036Z,1005.30
2018-11-12T09:08:56.064Z,1005.35
2018-11-12T09:09:56.120Z,1005.28
2018-11-12T09:10:56.116Z,1005.30
2018-11-12T09:11:56.144Z,1005.26
2018-11-12T09:12:56.169Z,1005.33
2018-11-12T09:13:56.195Z,1005.33
2018-11-12T09:14:56.222Z,1005.37
2018-11-12T09:15:56.250Z,1005.35
2018-11-12T09:16:56.275Z,1005.27
2018-11-12T09:17:56.301Z,1005.12
2018-11-12T09:18:56.329Z,1005.08
2018-11-12T09:19:56.354Z,1005.10
2018-11-12T09:20:56.385Z,1005.23
2018-11-12T09:21:56.407Z,1005.31
2018-11-12T09:22:56.436Z,1005.32
2018-11-12T09:23:56.460Z,1005.31
2018-11-12T09:24:56.488Z,1005.28
2018-11-12T09:25:56.513Z,1005.33
2018-11-12T09:26:56.541Z,1005.29
2018-11-12T09:27:56.566Z,1005.34
2018-11-12T09:28:56.595Z,1005.33
2018-11-12T09:29:56.619Z,1005.36
2018-11-12T09:30:57.963Z,1005.39
2018-11-12T09:31:56.673Z,1005.39
2018-11-12T09:32:56.699Z,1005.36
2018-11-12T09:34:56.752Z,1005.39
2018-11-12T09:35:56.780Z,1005.41
2018-11-12T09:36:56.806Z,1005.41
2018-11-12T09:37:56.832Z,1005.37
2018-11-12T09:40:56.924Z,1005.22
2018-11-12T09:41:56.938Z,1005.17
2018-11-12T09:42:57.017Z,1005.18
2018-11-12T09:43:56.993Z,1005.20
2018-11-12T09:44:57.019Z,1005.15
2018-11-12T09:45:57.065Z,1005.14
2018-11-12T09:46:57.072Z,1005.16
2018-11-12T09:47:57.200Z,1005.14
2018-11-12T09:48:57.131Z,1005.14
2018-11-12T09:49:57.151Z,1005.16
2018-11-12T09:50:57.178Z,1005.13
2018-11-12T09:51:57.205Z,1005.14
2018-11-12T09:52:57.236Z,1005.10
2018-11-12T09:53:57.307Z,1005.07
2018-11-12T09:54:57.286Z,1005.12
2018-11-12T09:55:57.313Z,1005.14
2018-11-12T09:56:57.344Z,1005.10
2018-11-12T09:57:57.368Z,1005.11
2018-11-12T09:58:57.393Z,1005.13
2018-11-12T09:59:57.496Z,1005.06
2018-11-12T10:00:57.662Z,1005.03
2018-11-12T10:01:58.052Z,1004.99
2018-11-12T10:02:58.451Z,1005.01
2018-11-12T10:03:58.743Z,1005.09
2018-11-12T10:04:59.046Z,1005.08
2018-11-12T10:05:59.454Z,1005.09
2018-11-12T10:06:58.653Z,1005.03
2018-11-12T10:08:00.786Z,1005.01
2018-11-12T10:09:00.477Z,1004.98
2018-11-12T10:09:59.684Z,1004.95
2018-11-12T10:11:01.330Z,1004.94
2018-11-12T10:11:59.631Z,1005.00
2018-11-12T10:12:59.086Z,1004.93
2018-11-12T10:14:00.976Z,1004.88
2018-11-12T10:15:01.642Z,1004.86
2018-11-12T10:15:59.992Z,1004.92
2018-11-12T10:17:01.117Z,1004.80
2018-11-12T10:17:59.908Z,1004.88
2018-11-12T10:18:57.934Z,1004.89
2018-11-12T10:19:57.959Z,1004.87
2018-11-12T10:20:57.986Z,1004.92
2018-11-12T10:21:58.012Z,1004.93
2018-11-12T10:22:58.039Z,1004.90
2018-11-12T10:23:58.066Z,1004.93
2018-11-12T10:24:58.094Z,1004.94
2018-11-12T10:25:58.120Z,1004.93
2018-11-12T10:26:58.148Z,1005.02
2018-11-12T10:27:58.174Z,1004.95
2018-11-12T10:28:58.202Z,1004.91
2018-11-12T10:29:58.228Z,1005.07
2018-11-12T10:30:58.255Z,1005.08
2018-11-12T10:31:58.283Z,1004.97
2018-11-12T10:32:58.311Z,1005.07
2018-11-12T10:33:58.387Z,1005.11
2018-11-12T10:34:58.363Z,1005.00
2018-11-12T10:35:58.391Z,1004.91
2018-11-12T10:36:58.417Z,1004.92
2018-11-12T10:37:58.446Z,1004.92
2018-11-12T10:38:58.473Z,1004.97
2018-11-12T10:39:58.498Z,1005.00
2018-11-12T10:40:58.549Z,1005.00
2018-11-12T10:41:58.553Z,1004.96
2018-11-12T10:42:58.579Z,1004.98
2018-11-12T10:43:58.606Z,1005.00
2018-11-12T10:44:58.633Z,1004.99
2018-11-12T10:45:58.661Z,1005.02
2018-11-12T10:46:58.687Z,1004.91
2018-11-12T10:47:58.745Z,1004.88
2018-11-12T10:48:58.741Z,1004.86
2018-11-12T10:49:58.768Z,1004.84
2018-11-12T10:51:05.031Z,1004.84
2018-11-12T10:51:58.823Z,1004.81
2018-11-12T10:52:58.850Z,1004.79
2018-11-12T10:53:59.014Z,1004.87
2018-11-12T10:55:04.894Z,1004.89
2018-11-12T10:55:59.113Z,1004.92
2018-11-12T10:56:58.958Z,1004.89
2018-11-12T10:57:58.985Z,1004.92
2018-11-12T10:58:59.012Z,1004.94
2018-11-12T10:59:59.040Z,1004.94
2018-11-12T11:00:59.068Z,1004.96
2018-11-12T11:01:59.093Z,1005.00
2018-11-12T11:02:59.122Z,1004.99
2018-11-12T11:03:59.150Z,1005.00
2018-11-12T11:04:59.177Z,1005.03
2018-11-12T11:05:59.203Z,1005.00
2018-11-12T11:06:59.229Z,1005.00
2018-11-12T11:07:59.291Z,1004.97
2018-11-12T11:08:59.286Z,1004.98
2018-11-12T11:09:59.313Z,1004.97
2018-11-12T11:10:59.340Z,1004.92
2018-11-12T11:11:59.367Z,1004.89
2018-11-12T11:12:59.394Z,1004.84
2018-11-12T11:13:59.422Z,1004.79
2018-11-12T11:14:59.449Z,1004.78
2018-11-12T11:15:59.476Z,1004.82
2018-11-12T11:16:59.505Z,1004.83
2018-11-12T11:17:59.535Z,1004.94
2018-11-12T11:18:59.557Z,1004.94
2018-11-12T11:19:59.586Z,1004.92
2018-11-12T11:20:59.653Z,1004.92
2018-11-12T11:21:59.639Z,1004.89
2018-11-12T11:22:59.670Z,1004.87
2018-11-12T11:23:59.695Z,1004.91
2018-11-12T11:24:59.722Z,1004.95
2018-11-12T11:25:59.752Z,1004.96
2018-11-12T11:26:59.800Z,1005.03
2018-11-12T11:27:59.803Z,1005.03
2018-11-12T11:28:59.831Z,1004.99
2018-11-12T11:29:59.857Z,1005.03
2018-11-12T11:30:59.921Z,1005.03
2018-11-12T11:31:59.920Z,1005.03
2018-11-12T11:32:59.940Z,1005.09
2018-11-12T11:33:59.967Z,1005.11
2018-11-12T11:34:59.997Z,1005.13
2018-11-12T11:36:00.026Z,1005.13
2018-11-12T11:37:00.050Z,1005.14
2018-11-12T11:38:00.077Z,1005.08
2018-11-12T11:39:00.104Z,1005.10
2018-11-12T11:40:00.188Z,1005.12
2018-11-12T11:41:00.160Z,1005.16
2018-11-12T11:42:00.186Z,1005.19
2018-11-12T11:43:00.216Z,1005.23
2018-11-12T11:44:00.285Z,1005.17
2018-11-12T11:45:00.269Z,1005.15
2018-11-12T11:46:00.337Z,1005.12
2018-11-12T11:47:00.331Z,1005.15
2018-11-12T11:48:00.461Z,1005.11
2018-11-12T11:49:00.534Z,1005.11
2018-11-12T11:50:00.431Z,1005.08
2018-11-12T11:51:00.459Z,1005.07
2018-11-12T11:52:00.461Z,1005.06
2018-11-12T11:53:00.490Z,1005.08
2018-11-12T11:54:00.516Z,1005.01
2018-11-12T11:55:00.543Z,1005.05
2018-11-12T11:56:00.571Z,1005.08
2018-11-12T11:57:00.620Z,1005.07
2018-11-12T11:58:00.625Z,1005.08
2018-11-12T11:59:00.653Z,1005.12
2018-11-12T12:00:00.680Z,1005.05
2018-11-12T12:01:00.715Z,1005.06
2018-11-12T12:02:00.786Z,1005.04
2018-11-12T12:03:00.855Z,1005.05
2018-11-12T12:04:00.792Z,1005.09
2018-11-12T12:05:00.817Z,1005.11
2018-11-12T12:06:00.844Z,1005.09
2018-11-12T12:07:00.872Z,1005.10
2018-11-12T12:08:00.901Z,1005.10
2018-11-12T12:09:00.971Z,1005.06